sensor_id;sensor_type;location;lat;lon;timestamp;temperature;humidity
22491;DHT22;11412;50.802;4.350;2023-04-07T00:01:44;9.90;99.90
22491;DHT22;11412;50.802;4.350;2023-04-07T00:04:10;9.80;99.90
22491;DHT22;11412;50.802;4.350;2023-04-07T00:06:36;9.70;99.90
22491;DHT22;11412;50.802;4.350;2023-04-07T00:09:01;9.70;99.90
22491;DHT22;11412;50.802;4.350;2023-04-07T00:11:27;9.70;99.90
22491;DHT22;11412;50.802;4.350;2023-04-07T00:13:53;9.80;99.90
22491;DHT22;11412;50.802;4.350;2023-04-07T00:16:18;9.70;99.90
22491;DHT22;11412;50.802;4.350;2023-04-07T00:18:44;9.70;99.90
22491;DHT22;11412;50.802;4.350;2023-04-07T00:21:09;9.70;99.90
22491;DHT22;11412;50.802;4.350;2023-04-07T00:23:35;9.80;99.90
22491;DHT22;11412;50.802;4.350;2023-04-07T00:26:01;9.70;99.90
22491;DHT22;11412;50.802;4.350;2023-04-07T00:28:27;9.70;99.90
22491;DHT22;11412;50.802;4.350;2023-04-07T00:30:52;9.70;99.90
22491;DHT22;11412;50.802;4.350;2023-04-07T00:33:18;9.70;99.90
22491;DHT22;11412;50.802;4.350;2023-04-07T00:35:44;9.80;99.90
22491;DHT22;11412;50.802;4.350;2023-04-07T00:38:09;9.70;99.90
22491;DHT22;11412;50.802;4.350;2023-04-07T00:40:35;9.80;99.90
22491;DHT22;11412;50.802;4.350;2023-04-07T00:43:01;9.80;99.90
22491;DHT22;11412;50.802;4.350;2023-04-07T00:45:27;9.70;99.90
22491;DHT22;11412;50.802;4.350;2023-04-07T00:47:52;9.80;99.90
22491;DHT22;11412;50.802;4.350;2023-04-07T00:50:18;9.80;99.90
22491;DHT22;11412;50.802;4.350;2023-04-07T00:52:45;9.70;99.90
22491;DHT22;11412;50.802;4.350;2023-04-07T00:55:11;9.70;99.90
22491;DHT22;11412;50.802;4.350;2023-04-07T00:57:36;9.80;99.90
22491;DHT22;11412;50.802;4.350;2023-04-07T01:00:02;9.70;99.90
22491;DHT22;11412;50.802;4.350;2023-04-07T01:02:41;9.70;99.90
22491;DHT22;11412;50.802;4.350;2023-04-07T01:05:15;9.70;99.90
22491;DHT22;11412;50.802;4.350;2023-04-07T01:07:50;9.60;99.90
22491;DHT22;11412;50.802;4.350;2023-04-07T01:10:22;9.60;99.90
22491;DHT22;11412;50.802;4.350;2023-04-07T01:13:30;9.60;99.90
22491;DHT22;11412;50.802;4.350;2023-04-07T01:16:00;9.50;99.90
22491;DHT22;11412;50.802;4.350;2023-04-07T01:18:34;9.50;99.90
22491;DHT22;11412;50.802;4.350;2023-04-07T01:21:08;9.60;99.90
22491;DHT22;11412;50.802;4.350;2023-04-07T01:26:28;9.50;99.90
22491;DHT22;11412;50.802;4.350;2023-04-07T01:29:09;9.50;99.90
22491;DHT22;11412;50.802;4.350;2023-04-07T01:31:39;9.50;99.90
22491;DHT22;11412;50.802;4.350;2023-04-07T01:34:07;9.50;99.90
22491;DHT22;11412;50.802;4.350;2023-04-07T01:36:34;9.50;99.90
22491;DHT22;11412;50.802;4.350;2023-04-07T01:39:00;9.50;99.90
22491;DHT22;11412;50.802;4.350;2023-04-07T01:41:27;9.40;99.90
22491;DHT22;11412;50.802;4.350;2023-04-07T01:43:53;9.40;99.90
22491;DHT22;11412;50.802;4.350;2023-04-07T01:46:20;9.40;99.90
22491;DHT22;11412;50.802;4.350;2023-04-07T01:48:47;9.40;99.90
22491;DHT22;11412;50.802;4.350;2023-04-07T01:51:13;9.30;99.90
22491;DHT22;11412;50.802;4.350;2023-04-07T01:53:45;9.30;99.90
22491;DHT22;11412;50.802;4.350;2023-04-07T01:56:12;9.30;99.90
22491;DHT22;11412;50.802;4.350;2023-04-07T01:58:37;9.20;99.90
22491;DHT22;11412;50.802;4.350;2023-04-07T02:01:03;9.20;99.90
22491;DHT22;11412;50.802;4.350;2023-04-07T02:03:51;9.20;99.90
22491;DHT22;11412;50.802;4.350;2023-04-07T02:06:21;9.20;99.90
22491;DHT22;11412;50.802;4.350;2023-04-07T02:08:51;9.20;99.90
22491;DHT22;11412;50.802;4.350;2023-04-07T02:11:19;9.20;99.90
22491;DHT22;11412;50.802;4.350;2023-04-07T02:13:46;9.20;99.90
22491;DHT22;11412;50.802;4.350;2023-04-07T02:16:13;9.20;99.90
22491;DHT22;11412;50.802;4.350;2023-04-07T02:18:39;9.20;99.90
22491;DHT22;11412;50.802;4.350;2023-04-07T02:21:06;9.10;99.90
22491;DHT22;11412;50.802;4.350;2023-04-07T02:23:36;9.20;99.90
22491;DHT22;11412;50.802;4.350;2023-04-07T02:26:02;9.20;99.90
22491;DHT22;11412;50.802;4.350;2023-04-07T02:28:27;9.30;99.90
22491;DHT22;11412;50.802;4.350;2023-04-07T02:30:53;9.20;99.90
22491;DHT22;11412;50.802;4.350;2023-04-07T02:33:18;9.20;99.90
22491;DHT22;11412;50.802;4.350;2023-04-07T02:35:44;9.20;99.90
22491;DHT22;11412;50.802;4.350;2023-04-07T02:38:10;9.10;99.90
22491;DHT22;11412;50.802;4.350;2023-04-07T02:40:36;9.10;99.90
22491;DHT22;11412;50.802;4.350;2023-04-07T02:43:02;9.10;99.90
22491;DHT22;11412;50.802;4.350;2023-04-07T02:45:29;9.00;99.90
22491;DHT22;11412;50.802;4.350;2023-04-07T02:47:55;9.10;99.90
22491;DHT22;11412;50.802;4.350;2023-04-07T02:50:21;9.10;99.90
22491;DHT22;11412;50.802;4.350;2023-04-07T02:52:46;9.10;99.90
22491;DHT22;11412;50.802;4.350;2023-04-07T02:55:12;9.10;99.90
22491;DHT22;11412;50.802;4.350;2023-04-07T02:57:38;9.20;99.90
22491;DHT22;11412;50.802;4.350;2023-04-07T03:00:04;9.20;99.90
22491;DHT22;11412;50.802;4.350;2023-04-07T03:02:30;9.10;99.90
22491;DHT22;11412;50.802;4.350;2023-04-07T03:04:55;9.10;99.90
22491;DHT22;11412;50.802;4.350;2023-04-07T03:07:21;9.10;99.90
22491;DHT22;11412;50.802;4.350;2023-04-07T03:09:46;9.00;99.90
22491;DHT22;11412;50.802;4.350;2023-04-07T03:12:12;9.00;99.90
22491;DHT22;11412;50.802;4.350;2023-04-07T03:14:38;9.00;99.90
22491;DHT22;11412;50.802;4.350;2023-04-07T03:17:03;9.00;99.90
22491;DHT22;11412;50.802;4.350;2023-04-07T03:19:29;9.00;99.90
22491;DHT22;11412;50.802;4.350;2023-04-07T03:21:55;8.90;99.90
22491;DHT22;11412;50.802;4.350;2023-04-07T03:24:21;9.00;99.90
22491;DHT22;11412;50.802;4.350;2023-04-07T03:26:46;8.90;99.90
22491;DHT22;11412;50.802;4.350;2023-04-07T03:29:12;8.90;99.90
22491;DHT22;11412;50.802;4.350;2023-04-07T03:31:38;8.90;99.90
22491;DHT22;11412;50.802;4.350;2023-04-07T03:34:04;8.90;99.90
22491;DHT22;11412;50.802;4.350;2023-04-07T03:36:30;8.90;99.90
22491;DHT22;11412;50.802;4.350;2023-04-07T03:38:56;8.90;99.90
22491;DHT22;11412;50.802;4.350;2023-04-07T03:41:22;8.90;99.90
22491;DHT22;11412;50.802;4.350;2023-04-07T03:43:48;8.80;99.90
22491;DHT22;11412;50.802;4.350;2023-04-07T03:46:13;8.90;99.90
22491;DHT22;11412;50.802;4.350;2023-04-07T03:48:39;8.90;99.90
22491;DHT22;11412;50.802;4.350;2023-04-07T03:51:06;8.90;99.90
22491;DHT22;11412;50.802;4.350;2023-04-07T03:53:31;8.70;99.90
22491;DHT22;11412;50.802;4.350;2023-04-07T03:55:57;8.70;99.90
22491;DHT22;11412;50.802;4.350;2023-04-07T03:58:23;8.70;99.90
22491;DHT22;11412;50.802;4.350;2023-04-07T04:00:49;8.80;99.90
22491;DHT22;11412;50.802;4.350;2023-04-07T04:03:14;8.90;99.90
22491;DHT22;11412;50.802;4.350;2023-04-07T04:05:40;8.80;99.90
22491;DHT22;11412;50.802;4.350;2023-04-07T04:08:06;8.90;99.90
22491;DHT22;11412;50.802;4.350;2023-04-07T04:10:32;8.80;99.90
22491;DHT22;11412;50.802;4.350;2023-04-07T04:12:57;8.90;99.90
22491;DHT22;11412;50.802;4.350;2023-04-07T04:15:25;8.90;99.90
22491;DHT22;11412;50.802;4.350;2023-04-07T04:17:51;8.90;99.90
22491;DHT22;11412;50.802;4.350;2023-04-07T04:20:17;8.90;99.90
22491;DHT22;11412;50.802;4.350;2023-04-07T04:22:42;8.90;99.90
22491;DHT22;11412;50.802;4.350;2023-04-07T04:25:08;9.00;99.90
22491;DHT22;11412;50.802;4.350;2023-04-07T04:27:34;9.00;99.90
22491;DHT22;11412;50.802;4.350;2023-04-07T04:30:00;9.00;99.90
22491;DHT22;11412;50.802;4.350;2023-04-07T04:32:25;9.00;99.90
22491;DHT22;11412;50.802;4.350;2023-04-07T04:34:51;9.00;99.90
22491;DHT22;11412;50.802;4.350;2023-04-07T04:37:17;8.90;99.90
22491;DHT22;11412;50.802;4.350;2023-04-07T04:39:42;9.00;99.90
22491;DHT22;11412;50.802;4.350;2023-04-07T04:42:08;8.90;99.90
22491;DHT22;11412;50.802;4.350;2023-04-07T04:44:34;8.90;99.90
22491;DHT22;11412;50.802;4.350;2023-04-07T04:46:59;9.00;99.90
22491;DHT22;11412;50.802;4.350;2023-04-07T04:49:25;9.10;99.90
22491;DHT22;11412;50.802;4.350;2023-04-07T04:51:51;9.00;99.90
22491;DHT22;11412;50.802;4.350;2023-04-07T04:54:18;9.00;99.90
22491;DHT22;11412;50.802;4.350;2023-04-07T04:56:44;9.00;99.90
22491;DHT22;11412;50.802;4.350;2023-04-07T04:59:09;9.00;99.90
22491;DHT22;11412;50.802;4.350;2023-04-07T05:01:35;8.90;99.90
22491;DHT22;11412;50.802;4.350;2023-04-07T05:04:01;9.00;99.90
22491;DHT22;11412;50.802;4.350;2023-04-07T05:06:27;8.90;99.90
22491;DHT22;11412;50.802;4.350;2023-04-07T05:08:53;8.90;99.90
22491;DHT22;11412;50.802;4.350;2023-04-07T05:11:18;8.80;99.90
22491;DHT22;11412;50.802;4.350;2023-04-07T05:13:46;8.90;99.90
22491;DHT22;11412;50.802;4.350;2023-04-07T05:16:12;8.90;99.90
22491;DHT22;11412;50.802;4.350;2023-04-07T05:18:38;8.90;99.90
22491;DHT22;11412;50.802;4.350;2023-04-07T05:21:03;8.90;99.90
22491;DHT22;11412;50.802;4.350;2023-04-07T05:23:29;8.90;99.90
22491;DHT22;11412;50.802;4.350;2023-04-07T05:25:55;8.90;99.90
22491;DHT22;11412;50.802;4.350;2023-04-07T05:28:21;8.90;99.90
22491;DHT22;11412;50.802;4.350;2023-04-07T05:30:47;9.00;99.90
22491;DHT22;11412;50.802;4.350;2023-04-07T05:33:12;8.90;99.90
22491;DHT22;11412;50.802;4.350;2023-04-07T05:35:38;8.80;99.90
22491;DHT22;11412;50.802;4.350;2023-04-07T05:38:04;8.80;99.90
22491;DHT22;11412;50.802;4.350;2023-04-07T05:40:29;8.80;99.90
22491;DHT22;11412;50.802;4.350;2023-04-07T05:42:55;8.80;99.90
22491;DHT22;11412;50.802;4.350;2023-04-07T05:45:21;8.80;99.90
22491;DHT22;11412;50.802;4.350;2023-04-07T05:47:46;8.70;99.90
22491;DHT22;11412;50.802;4.350;2023-04-07T05:50:15;8.70;99.90
22491;DHT22;11412;50.802;4.350;2023-04-07T05:52:41;8.70;99.90
22491;DHT22;11412;50.802;4.350;2023-04-07T05:55:07;8.90;99.90
22491;DHT22;11412;50.802;4.350;2023-04-07T05:57:32;8.90;99.90
22491;DHT22;11412;50.802;4.350;2023-04-07T05:59:59;8.90;99.90
22491;DHT22;11412;50.802;4.350;2023-04-07T06:02:24;8.90;99.90
22491;DHT22;11412;50.802;4.350;2023-04-07T06:04:50;8.90;99.90
22491;DHT22;11412;50.802;4.350;2023-04-07T06:07:16;9.00;99.90
22491;DHT22;11412;50.802;4.350;2023-04-07T06:09:41;9.00;99.90
22491;DHT22;11412;50.802;4.350;2023-04-07T06:12:07;8.90;99.90
22491;DHT22;11412;50.802;4.350;2023-04-07T06:14:34;9.00;99.90
22491;DHT22;11412;50.802;4.350;2023-04-07T06:16:59;8.90;99.90
22491;DHT22;11412;50.802;4.350;2023-04-07T06:19:25;8.90;99.90
22491;DHT22;11412;50.802;4.350;2023-04-07T06:21:52;8.90;99.90
22491;DHT22;11412;50.802;4.350;2023-04-07T06:24:18;8.90;99.90
22491;DHT22;11412;50.802;4.350;2023-04-07T06:26:47;9.00;99.90
22491;DHT22;11412;50.802;4.350;2023-04-07T06:29:13;9.00;99.90
22491;DHT22;11412;50.802;4.350;2023-04-07T06:31:39;9.10;99.90
22491;DHT22;11412;50.802;4.350;2023-04-07T06:34:05;9.20;99.90
22491;DHT22;11412;50.802;4.350;2023-04-07T06:36:30;9.10;99.90
22491;DHT22;11412;50.802;4.350;2023-04-07T06:38:57;9.10;99.90
22491;DHT22;11412;50.802;4.350;2023-04-07T06:41:23;9.10;99.90
22491;DHT22;11412;50.802;4.350;2023-04-07T06:43:49;9.20;99.90
22491;DHT22;11412;50.802;4.350;2023-04-07T06:46:17;9.30;99.90
22491;DHT22;11412;50.802;4.350;2023-04-07T06:48:44;9.40;99.90
22491;DHT22;11412;50.802;4.350;2023-04-07T06:51:09;9.50;99.90
22491;DHT22;11412;50.802;4.350;2023-04-07T06:53:35;9.50;99.90
22491;DHT22;11412;50.802;4.350;2023-04-07T06:56:08;9.50;99.90
22491;DHT22;11412;50.802;4.350;2023-04-07T06:58:35;9.60;99.90
22491;DHT22;11412;50.802;4.350;2023-04-07T07:01:02;9.60;99.90
22491;DHT22;11412;50.802;4.350;2023-04-07T07:03:28;9.50;99.90
22491;DHT22;11412;50.802;4.350;2023-04-07T07:05:55;9.70;99.90
22491;DHT22;11412;50.802;4.350;2023-04-07T07:08:24;9.60;99.90
22491;DHT22;11412;50.802;4.350;2023-04-07T07:10:51;9.60;99.90
22491;DHT22;11412;50.802;4.350;2023-04-07T07:13:18;9.60;99.90
22491;DHT22;11412;50.802;4.350;2023-04-07T07:15:44;9.70;99.90
22491;DHT22;11412;50.802;4.350;2023-04-07T07:18:10;9.70;99.90
22491;DHT22;11412;50.802;4.350;2023-04-07T07:20:36;9.70;99.90
22491;DHT22;11412;50.802;4.350;2023-04-07T07:23:02;9.70;99.90
22491;DHT22;11412;50.802;4.350;2023-04-07T07:25:28;9.60;99.90
22491;DHT22;11412;50.802;4.350;2023-04-07T07:27:54;9.70;99.90
22491;DHT22;11412;50.802;4.350;2023-04-07T07:30:21;9.80;99.90
22491;DHT22;11412;50.802;4.350;2023-04-07T07:32:47;9.70;99.90
22491;DHT22;11412;50.802;4.350;2023-04-07T07:35:13;9.80;99.90
22491;DHT22;11412;50.802;4.350;2023-04-07T07:37:39;9.70;99.90
22491;DHT22;11412;50.802;4.350;2023-04-07T07:40:05;9.80;99.90
22491;DHT22;11412;50.802;4.350;2023-04-07T07:42:31;9.90;99.90
22491;DHT22;11412;50.802;4.350;2023-04-07T07:44:57;9.80;99.90
22491;DHT22;11412;50.802;4.350;2023-04-07T07:47:23;9.80;99.90
22491;DHT22;11412;50.802;4.350;2023-04-07T07:49:48;9.90;99.90
22491;DHT22;11412;50.802;4.350;2023-04-07T07:52:14;9.90;99.90
22491;DHT22;11412;50.802;4.350;2023-04-07T07:54:40;9.90;99.90
22491;DHT22;11412;50.802;4.350;2023-04-07T07:57:05;9.90;99.90
22491;DHT22;11412;50.802;4.350;2023-04-07T07:59:31;10.00;99.90
22491;DHT22;11412;50.802;4.350;2023-04-07T08:01:57;10.10;99.90
22491;DHT22;11412;50.802;4.350;2023-04-07T08:04:23;10.10;99.90
22491;DHT22;11412;50.802;4.350;2023-04-07T08:06:50;10.10;99.90
22491;DHT22;11412;50.802;4.350;2023-04-07T08:09:16;10.10;99.90
22491;DHT22;11412;50.802;4.350;2023-04-07T08:11:42;10.00;99.90
22491;DHT22;11412;50.802;4.350;2023-04-07T08:14:08;10.10;99.90
22491;DHT22;11412;50.802;4.350;2023-04-07T08:16:33;10.10;99.90
22491;DHT22;11412;50.802;4.350;2023-04-07T08:18:59;10.10;99.90
22491;DHT22;11412;50.802;4.350;2023-04-07T08:21:25;10.10;99.90
22491;DHT22;11412;50.802;4.350;2023-04-07T08:23:53;10.00;99.90
22491;DHT22;11412;50.802;4.350;2023-04-07T08:26:18;10.00;99.90
22491;DHT22;11412;50.802;4.350;2023-04-07T08:28:45;9.90;99.90
22491;DHT22;11412;50.802;4.350;2023-04-07T08:31:11;10.00;99.90
22491;DHT22;11412;50.802;4.350;2023-04-07T08:33:37;9.90;99.90
22491;DHT22;11412;50.802;4.350;2023-04-07T08:36:03;10.00;99.90
22491;DHT22;11412;50.802;4.350;2023-04-07T08:38:28;10.20;99.90
22491;DHT22;11412;50.802;4.350;2023-04-07T08:41:03;10.10;99.90
22491;DHT22;11412;50.802;4.350;2023-04-07T08:43:34;10.00;99.90
22491;DHT22;11412;50.802;4.350;2023-04-07T08:46:01;10.00;99.90
22491;DHT22;11412;50.802;4.350;2023-04-07T08:48:29;9.90;99.90
22491;DHT22;11412;50.802;4.350;2023-04-07T08:51:05;10.00;99.90
22491;DHT22;11412;50.802;4.350;2023-04-07T08:53:40;10.00;99.90
22491;DHT22;11412;50.802;4.350;2023-04-07T08:56:10;10.00;99.90
22491;DHT22;11412;50.802;4.350;2023-04-07T08:58:36;10.00;99.90
22491;DHT22;11412;50.802;4.350;2023-04-07T09:01:06;10.20;99.90
22491;DHT22;11412;50.802;4.350;2023-04-07T09:03:33;10.20;99.90
22491;DHT22;11412;50.802;4.350;2023-04-07T09:06:00;10.30;99.90
22491;DHT22;11412;50.802;4.350;2023-04-07T09:08:27;10.40;99.90
22491;DHT22;11412;50.802;4.350;2023-04-07T09:10:54;10.60;99.90
22491;DHT22;11412;50.802;4.350;2023-04-07T09:13:20;10.60;99.90
22491;DHT22;11412;50.802;4.350;2023-04-07T09:15:46;10.60;99.90
22491;DHT22;11412;50.802;4.350;2023-04-07T09:18:12;10.30;99.90
22491;DHT22;11412;50.802;4.350;2023-04-07T09:20:59;10.30;99.90
22491;DHT22;11412;50.802;4.350;2023-04-07T09:23:33;10.70;99.90
22491;DHT22;11412;50.802;4.350;2023-04-07T09:26:17;11.10;99.90
22491;DHT22;11412;50.802;4.350;2023-04-07T09:28:44;11.50;99.90
22491;DHT22;11412;50.802;4.350;2023-04-07T09:31:11;12.10;99.90
22491;DHT22;11412;50.802;4.350;2023-04-07T09:33:36;12.60;99.90
22491;DHT22;11412;50.802;4.350;2023-04-07T09:36:03;13.10;99.90
22491;DHT22;11412;50.802;4.350;2023-04-07T09:38:34;13.20;99.90
22491;DHT22;11412;50.802;4.350;2023-04-07T09:41:14;13.30;99.90
22491;DHT22;11412;50.802;4.350;2023-04-07T09:43:45;13.50;99.90
22491;DHT22;11412;50.802;4.350;2023-04-07T09:46:15;13.30;99.90
22491;DHT22;11412;50.802;4.350;2023-04-07T09:48:43;13.30;99.90
22491;DHT22;11412;50.802;4.350;2023-04-07T09:51:15;13.30;99.90
22491;DHT22;11412;50.802;4.350;2023-04-07T09:53:42;13.20;99.90
22491;DHT22;11412;50.802;4.350;2023-04-07T09:56:11;13.00;99.90
22491;DHT22;11412;50.802;4.350;2023-04-07T09:58:39;13.10;99.90
22491;DHT22;11412;50.802;4.350;2023-04-07T10:01:09;13.00;99.90
22491;DHT22;11412;50.802;4.350;2023-04-07T10:03:36;12.90;99.90
22491;DHT22;11412;50.802;4.350;2023-04-07T10:06:03;13.30;99.90
22491;DHT22;11412;50.802;4.350;2023-04-07T10:08:31;13.40;99.90
22491;DHT22;11412;50.802;4.350;2023-04-07T10:10:59;13.40;99.90
22491;DHT22;11412;50.802;4.350;2023-04-07T10:13:28;13.90;99.90
22491;DHT22;11412;50.802;4.350;2023-04-07T10:15:54;15.10;99.90
22491;DHT22;11412;50.802;4.350;2023-04-07T10:18:21;15.70;99.90
22491;DHT22;11412;50.802;4.350;2023-04-07T10:20:48;15.60;99.90
22491;DHT22;11412;50.802;4.350;2023-04-07T10:23:24;15.80;99.90
22491;DHT22;11412;50.802;4.350;2023-04-07T10:25:51;15.80;99.90
22491;DHT22;11412;50.802;4.350;2023-04-07T10:28:20;15.80;99.90
22491;DHT22;11412;50.802;4.350;2023-04-07T10:30:47;15.60;99.90
22491;DHT22;11412;50.802;4.350;2023-04-07T10:33:13;15.50;99.90
22491;DHT22;11412;50.802;4.350;2023-04-07T10:36:05;15.40;99.90
22491;DHT22;11412;50.802;4.350;2023-04-07T10:38:31;14.80;99.90
22491;DHT22;11412;50.802;4.350;2023-04-07T10:40:57;14.20;99.90
22491;DHT22;11412;50.802;4.350;2023-04-07T10:43:40;13.70;99.90
22491;DHT22;11412;50.802;4.350;2023-04-07T10:46:08;13.50;99.90
22491;DHT22;11412;50.802;4.350;2023-04-07T10:48:34;13.20;99.90
22491;DHT22;11412;50.802;4.350;2023-04-07T10:53:32;13.00;99.90
22491;DHT22;11412;50.802;4.350;2023-04-07T10:56:01;12.80;99.90
22491;DHT22;11412;50.802;4.350;2023-04-07T10:58:31;12.70;99.90
22491;DHT22;11412;50.802;4.350;2023-04-07T11:03:27;12.60;99.90
22491;DHT22;11412;50.802;4.350;2023-04-07T11:06:06;12.50;99.90
22491;DHT22;11412;50.802;4.350;2023-04-07T11:08:37;12.50;99.90
22491;DHT22;11412;50.802;4.350;2023-04-07T11:11:05;12.70;99.90
22491;DHT22;11412;50.802;4.350;2023-04-07T11:13:49;12.70;99.90
22491;DHT22;11412;50.802;4.350;2023-04-07T11:16:16;13.00;99.90
22491;DHT22;11412;50.802;4.350;2023-04-07T11:18:44;13.00;99.90
22491;DHT22;11412;50.802;4.350;2023-04-07T11:21:10;13.00;99.90
22491;DHT22;11412;50.802;4.350;2023-04-07T11:23:39;13.10;99.90
22491;DHT22;11412;50.802;4.350;2023-04-07T11:26:06;13.30;99.90
22491;DHT22;11412;50.802;4.350;2023-04-07T11:28:34;13.50;99.90
22491;DHT22;11412;50.802;4.350;2023-04-07T11:31:01;13.30;99.90
22491;DHT22;11412;50.802;4.350;2023-04-07T11:33:29;13.40;99.90
22491;DHT22;11412;50.802;4.350;2023-04-07T11:35:57;13.20;99.90
22491;DHT22;11412;50.802;4.350;2023-04-07T11:38:36;13.10;99.90
22491;DHT22;11412;50.802;4.350;2023-04-07T11:41:14;13.20;99.90
22491;DHT22;11412;50.802;4.350;2023-04-07T11:43:40;13.00;99.90
22491;DHT22;11412;50.802;4.350;2023-04-07T11:46:17;12.80;99.90
22491;DHT22;11412;50.802;4.350;2023-04-07T11:48:44;12.80;99.90
22491;DHT22;11412;50.802;4.350;2023-04-07T11:51:20;12.90;99.90
22491;DHT22;11412;50.802;4.350;2023-04-07T11:53:52;13.10;99.90
22491;DHT22;11412;50.802;4.350;2023-04-07T11:56:18;13.10;99.90
22491;DHT22;11412;50.802;4.350;2023-04-07T12:01:13;12.90;99.90
22491;DHT22;11412;50.802;4.350;2023-04-07T12:03:57;12.70;99.90
22491;DHT22;11412;50.802;4.350;2023-04-07T12:06:31;12.60;99.90
22491;DHT22;11412;50.802;4.350;2023-04-07T12:09:05;12.50;99.90
22491;DHT22;11412;50.802;4.350;2023-04-07T12:11:34;12.60;99.90
22491;DHT22;11412;50.802;4.350;2023-04-07T12:14:06;12.70;99.90
22491;DHT22;11412;50.802;4.350;2023-04-07T12:16:37;12.80;99.90
22491;DHT22;11412;50.802;4.350;2023-04-07T12:19:02;12.90;99.90
22491;DHT22;11412;50.802;4.350;2023-04-07T12:21:28;13.10;99.90
22491;DHT22;11412;50.802;4.350;2023-04-07T12:23:53;13.10;99.90
22491;DHT22;11412;50.802;4.350;2023-04-07T12:26:19;13.00;99.90
22491;DHT22;11412;50.802;4.350;2023-04-07T12:28:46;13.00;99.90
22491;DHT22;11412;50.802;4.350;2023-04-07T12:31:12;12.90;99.90
22491;DHT22;11412;50.802;4.350;2023-04-07T12:33:38;12.70;99.90
22491;DHT22;11412;50.802;4.350;2023-04-07T12:36:04;12.40;99.90
22491;DHT22;11412;50.802;4.350;2023-04-07T12:38:30;12.30;99.90
22491;DHT22;11412;50.802;4.350;2023-04-07T12:40:55;12.20;99.90
22491;DHT22;11412;50.802;4.350;2023-04-07T12:43:28;12.10;99.90
22491;DHT22;11412;50.802;4.350;2023-04-07T12:45:54;12.20;99.90
22491;DHT22;11412;50.802;4.350;2023-04-07T12:48:19;12.20;99.90
22491;DHT22;11412;50.802;4.350;2023-04-07T12:50:45;12.10;99.90
22491;DHT22;11412;50.802;4.350;2023-04-07T12:53:11;12.30;99.90
22491;DHT22;11412;50.802;4.350;2023-04-07T12:55:37;12.30;99.90
22491;DHT22;11412;50.802;4.350;2023-04-07T12:58:03;12.30;99.90
22491;DHT22;11412;50.802;4.350;2023-04-07T13:00:29;12.40;99.90
22491;DHT22;11412;50.802;4.350;2023-04-07T13:02:55;12.40;99.90
22491;DHT22;11412;50.802;4.350;2023-04-07T13:05:21;12.60;99.90
22491;DHT22;11412;50.802;4.350;2023-04-07T13:07:48;12.50;99.90
22491;DHT22;11412;50.802;4.350;2023-04-07T13:10:13;12.60;99.90
22491;DHT22;11412;50.802;4.350;2023-04-07T13:12:39;12.80;99.90
22491;DHT22;11412;50.802;4.350;2023-04-07T13:15:07;12.80;99.90
22491;DHT22;11412;50.802;4.350;2023-04-07T13:17:32;12.90;99.90
22491;DHT22;11412;50.802;4.350;2023-04-07T13:20:01;13.00;99.90
22491;DHT22;11412;50.802;4.350;2023-04-07T13:22:28;13.20;99.90
22491;DHT22;11412;50.802;4.350;2023-04-07T13:24:54;13.30;99.90
22491;DHT22;11412;50.802;4.350;2023-04-07T13:27:19;13.30;99.90
22491;DHT22;11412;50.802;4.350;2023-04-07T13:29:46;13.30;99.90
22491;DHT22;11412;50.802;4.350;2023-04-07T13:32:11;13.40;99.90
22491;DHT22;11412;50.802;4.350;2023-04-07T13:34:38;13.60;99.90
22491;DHT22;11412;50.802;4.350;2023-04-07T13:37:04;13.60;99.90
22491;DHT22;11412;50.802;4.350;2023-04-07T13:39:33;13.50;99.90
22491;DHT22;11412;50.802;4.350;2023-04-07T13:42:02;13.50;99.90
22491;DHT22;11412;50.802;4.350;2023-04-07T13:44:29;13.40;99.90
22491;DHT22;11412;50.802;4.350;2023-04-07T13:46:55;13.50;99.90
22491;DHT22;11412;50.802;4.350;2023-04-07T13:49:21;13.50;99.90
22491;DHT22;11412;50.802;4.350;2023-04-07T13:51:47;13.50;99.90
22491;DHT22;11412;50.802;4.350;2023-04-07T13:54:13;13.20;99.90
22491;DHT22;11412;50.802;4.350;2023-04-07T13:56:39;13.00;99.90
22491;DHT22;11412;50.802;4.350;2023-04-07T13:59:05;13.00;99.90
22491;DHT22;11412;50.802;4.350;2023-04-07T14:01:32;13.20;99.90
22491;DHT22;11412;50.802;4.350;2023-04-07T14:03:58;13.10;99.90
22491;DHT22;11412;50.802;4.350;2023-04-07T14:06:24;13.00;99.90
22491;DHT22;11412;50.802;4.350;2023-04-07T14:08:51;12.80;99.90
22491;DHT22;11412;50.802;4.350;2023-04-07T14:11:18;12.70;99.90
22491;DHT22;11412;50.802;4.350;2023-04-07T14:13:45;12.80;99.90
22491;DHT22;11412;50.802;4.350;2023-04-07T14:16:11;13.00;99.90
22491;DHT22;11412;50.802;4.350;2023-04-07T14:18:37;12.80;99.90
22491;DHT22;11412;50.802;4.350;2023-04-07T14:21:03;12.80;99.90
22491;DHT22;11412;50.802;4.350;2023-04-07T14:23:29;12.70;99.90
22491;DHT22;11412;50.802;4.350;2023-04-07T14:25:57;12.70;99.90
22491;DHT22;11412;50.802;4.350;2023-04-07T14:28:22;12.40;99.90
22491;DHT22;11412;50.802;4.350;2023-04-07T14:30:48;12.70;99.90
22491;DHT22;11412;50.802;4.350;2023-04-07T14:33:14;12.70;99.90
22491;DHT22;11412;50.802;4.350;2023-04-07T14:35:42;12.80;99.90
22491;DHT22;11412;50.802;4.350;2023-04-07T14:38:08;12.70;99.90
22491;DHT22;11412;50.802;4.350;2023-04-07T14:40:34;12.60;99.90
22491;DHT22;11412;50.802;4.350;2023-04-07T14:43:01;12.60;99.90
22491;DHT22;11412;50.802;4.350;2023-04-07T14:45:27;12.50;99.90
22491;DHT22;11412;50.802;4.350;2023-04-07T14:47:53;12.70;99.90
22491;DHT22;11412;50.802;4.350;2023-04-07T14:50:19;12.40;99.90
22491;DHT22;11412;50.802;4.350;2023-04-07T14:52:44;12.60;99.90
22491;DHT22;11412;50.802;4.350;2023-04-07T14:55:10;12.70;99.90
22491;DHT22;11412;50.802;4.350;2023-04-07T14:57:36;12.70;99.90
22491;DHT22;11412;50.802;4.350;2023-04-07T15:00:03;12.60;99.90
22491;DHT22;11412;50.802;4.350;2023-04-07T15:02:32;12.70;99.90
22491;DHT22;11412;50.802;4.350;2023-04-07T15:04:58;12.70;99.90
22491;DHT22;11412;50.802;4.350;2023-04-07T15:07:24;12.70;99.90
22491;DHT22;11412;50.802;4.350;2023-04-07T15:09:49;12.70;99.90
22491;DHT22;11412;50.802;4.350;2023-04-07T15:12:15;12.80;99.90
22491;DHT22;11412;50.802;4.350;2023-04-07T15:14:41;12.90;99.90
22491;DHT22;11412;50.802;4.350;2023-04-07T15:17:07;12.90;99.90
22491;DHT22;11412;50.802;4.350;2023-04-07T15:19:32;12.80;99.90
22491;DHT22;11412;50.802;4.350;2023-04-07T15:21:58;12.70;99.90
22491;DHT22;11412;50.802;4.350;2023-04-07T15:24:24;12.80;99.90
22491;DHT22;11412;50.802;4.350;2023-04-07T15:26:49;12.60;99.90
22491;DHT22;11412;50.802;4.350;2023-04-07T15:29:15;12.40;99.90
22491;DHT22;11412;50.802;4.350;2023-04-07T15:31:41;12.40;99.90
22491;DHT22;11412;50.802;4.350;2023-04-07T15:34:06;12.10;99.90
22491;DHT22;11412;50.802;4.350;2023-04-07T15:36:32;12.20;99.90
22491;DHT22;11412;50.802;4.350;2023-04-07T15:39:02;12.10;99.90
22491;DHT22;11412;50.802;4.350;2023-04-07T15:41:28;12.10;99.90
22491;DHT22;11412;50.802;4.350;2023-04-07T15:43:54;11.90;99.90
22491;DHT22;11412;50.802;4.350;2023-04-07T15:46:21;11.90;99.90
22491;DHT22;11412;50.802;4.350;2023-04-07T15:48:47;11.90;99.90